createdAt,value
2023-06-10T00:00:46.437Z,6.10
2023-06-10T00:03:14.170Z,5.75
2023-06-10T00:05:42.394Z,5.80
2023-06-10T00:08:09.897Z,5.50
2023-06-10T00:10:38.205Z,5.82
2023-06-10T00:13:05.971Z,4.85
2023-06-10T00:15:33.309Z,5.63
2023-06-10T00:18:02.371Z,5.68
2023-06-10T00:20:30.512Z,5.63
2023-06-10T00:23:00.508Z,5.28
2023-06-10T00:25:27.973Z,6.22
2023-06-10T00:27:55.943Z,5.70
2023-06-10T00:30:23.351Z,5.45
2023-06-10T00:32:50.830Z,5.65
2023-06-10T00:35:18.330Z,6.18
2023-06-10T00:37:46.438Z,5.90
2023-06-10T00:40:14.078Z,6.20
2023-06-10T00:42:41.545Z,5.63
2023-06-10T00:45:09.970Z,6.20
2023-06-10T00:47:37.715Z,6.88
2023-06-10T00:50:05.614Z,6.53
2023-06-10T00:52:33.149Z,6.57
2023-06-10T00:55:00.640Z,6.38
2023-06-10T00:57:28.278Z,7.25
2023-06-10T00:59:55.686Z,7.22
2023-06-10T01:02:23.186Z,6.63
2023-06-10T01:04:50.734Z,7.32
2023-06-10T01:07:29.900Z,7.20
2023-06-10T01:10:03.966Z,6.50
2023-06-10T01:12:42.556Z,7.10
2023-06-10T01:15:11.651Z,7.30
2023-06-10T01:18:00.131Z,7.72
2023-06-10T01:20:28.242Z,7.35
2023-06-10T01:22:58.904Z,7.90
2023-06-10T01:25:30.327Z,7.25
2023-06-10T01:28:21.260Z,7.30
2023-06-10T01:31:09.743Z,7.95
2023-06-10T01:33:39.017Z,7.80
2023-06-10T01:36:06.768Z,8.77
2023-06-10T01:38:37.826Z,7.60
2023-06-10T01:41:05.312Z,7.35
2023-06-10T01:43:35.767Z,7.80
2023-06-10T01:46:03.162Z,7.38
2023-06-10T01:48:31.178Z,7.78
2023-06-10T01:50:58.612Z,8.02
2023-06-10T01:53:26.093Z,7.68
2023-06-10T01:55:54.854Z,7.93
2023-06-10T01:58:22.201Z,8.48
2023-06-10T02:00:49.666Z,8.50
2023-06-10T02:03:17.222Z,8.10
2023-06-10T02:05:44.991Z,8.27
2023-06-10T02:08:12.351Z,7.88
2023-06-10T02:10:39.779Z,8.55
2023-06-10T02:13:07.297Z,8.45
2023-06-10T02:15:35.014Z,8.55
2023-06-10T02:18:02.399Z,8.73
2023-06-10T02:20:29.785Z,9.00
2023-06-10T02:22:58.105Z,8.48
2023-06-10T02:25:25.483Z,8.63
2023-06-10T02:27:52.878Z,8.70
2023-06-10T02:30:20.337Z,8.30
2023-06-10T02:32:49.326Z,8.73
2023-06-10T02:35:18.897Z,8.27
2023-06-10T02:37:46.313Z,8.77
2023-06-10T02:40:13.841Z,9.02
2023-06-10T02:42:41.279Z,8.90
2023-06-10T02:45:09.949Z,9.65
2023-06-10T02:47:43.440Z,9.52
2023-06-10T02:50:12.877Z,9.75
2023-06-10T02:52:49.975Z,9.20
2023-06-10T02:55:17.430Z,8.40
2023-06-10T02:57:50.432Z,9.48
2023-06-10T03:00:22.679Z,8.77
2023-06-10T03:02:50.877Z,9.15
2023-06-10T03:05:23.413Z,9.45
2023-06-10T03:07:52.701Z,9.55
2023-06-10T03:10:20.696Z,9.40
2023-06-10T03:12:48.087Z,10.00
2023-06-10T03:15:16.897Z,9.70
2023-06-10T03:17:44.474Z,9.23
2023-06-10T03:20:12.549Z,9.65
2023-06-10T03:22:42.016Z,9.63
2023-06-10T03:25:15.336Z,9.85
2023-06-10T03:27:45.212Z,10.00
2023-06-10T03:30:14.668Z,8.93
2023-06-10T03:32:43.238Z,9.77
2023-06-10T03:35:13.172Z,10.02
2023-06-10T03:37:40.816Z,10.30
2023-06-10T03:40:11.426Z,10.82
2023-06-10T03:42:41.720Z,10.30
2023-06-10T03:45:10.734Z,10.32
2023-06-10T03:47:38.781Z,10.15
2023-06-10T03:50:10.001Z,9.30
2023-06-10T03:52:39.048Z,9.23
2023-06-10T03:55:08.269Z,10.73
2023-06-10T03:57:36.233Z,11.23
2023-06-10T04:00:09.530Z,11.07
2023-06-10T04:02:50.522Z,9.80
2023-06-10T04:07:54.566Z,10.65
2023-06-10T04:10:22.216Z,10.57
2023-06-10T04:12:49.692Z,11.57
2023-06-10T04:15:17.199Z,10.38
2023-06-10T04:17:45.127Z,10.68
2023-06-10T04:20:13.894Z,11.35
2023-06-10T04:22:45.346Z,10.90
2023-06-10T04:25:13.213Z,10.98
2023-06-10T04:27:43.107Z,11.48
2023-06-10T04:30:12.152Z,10.88
2023-06-10T04:32:40.134Z,11.05
2023-06-10T04:35:13.802Z,11.98
2023-06-10T04:37:42.077Z,10.60
2023-06-10T04:40:10.689Z,11.02
2023-06-10T04:42:38.261Z,9.85
2023-06-10T04:45:07.187Z,10.90
2023-06-10T04:47:35.193Z,10.50
2023-06-10T04:50:03.055Z,12.20
2023-06-10T04:52:30.664Z,10.77
2023-06-10T04:54:59.490Z,10.98
2023-06-10T04:57:27.277Z,11.13
2023-06-10T04:59:54.767Z,11.75
2023-06-10T05:02:22.321Z,11.40
2023-06-10T05:04:49.863Z,12.10
2023-06-10T05:07:17.228Z,11.45
2023-06-10T05:09:44.699Z,10.88
2023-06-10T05:12:12.085Z,12.30
2023-06-10T05:14:39.438Z,12.10
2023-06-10T05:17:07.285Z,12.05
2023-06-10T05:19:36.762Z,12.43
2023-06-10T05:22:04.455Z,10.88
2023-06-10T05:24:31.822Z,11.75
2023-06-10T05:26:59.204Z,11.93
2023-06-10T05:29:26.857Z,11.43
2023-06-10T05:31:54.831Z,11.38
2023-06-10T05:34:22.239Z,12.13
2023-06-10T05:36:49.622Z,11.38
2023-06-10T05:39:16.998Z,15.35
2023-06-10T05:41:44.368Z,11.77
2023-06-10T05:44:14.076Z,11.77
2023-06-10T05:46:41.807Z,11.73
2023-06-10T05:49:09.194Z,11.65
2023-06-10T05:51:38.675Z,11.20
2023-06-10T05:54:06.183Z,11.98
2023-06-10T05:56:33.559Z,12.25
2023-06-10T05:59:00.909Z,11.23
2023-06-10T06:01:28.330Z,11.02
2023-06-10T06:03:56.176Z,11.30
2023-06-10T06:06:24.251Z,10.95
2023-06-10T06:08:51.593Z,11.55
2023-06-10T06:11:19.239Z,11.18
2023-06-10T06:13:46.798Z,11.75
2023-06-10T06:16:14.790Z,11.13
2023-06-10T06:18:42.182Z,11.32
2023-06-10T06:21:09.540Z,10.50
2023-06-10T06:23:36.911Z,11.10
2023-06-10T06:26:05.191Z,11.23
2023-06-10T06:28:33.999Z,11.07
2023-06-10T06:31:01.434Z,10.93
2023-06-10T06:33:28.817Z,11.52
2023-06-10T06:35:56.605Z,12.43
2023-06-10T06:38:23.925Z,11.75
2023-06-10T06:40:51.373Z,11.75
2023-06-10T06:43:19.607Z,11.55
2023-06-10T06:46:17.565Z,10.90
2023-06-10T06:48:45.777Z,11.82
2023-06-10T06:51:13.262Z,11.70
2023-06-10T06:53:45.422Z,12.15
2023-06-10T06:56:13.266Z,11.20
2023-06-10T06:58:40.798Z,11.88
2023-06-10T07:01:08.308Z,11.70
2023-06-10T07:03:37.171Z,11.73
2023-06-10T07:06:04.734Z,10.73
2023-06-10T07:08:32.103Z,10.57
2023-06-10T07:10:59.482Z,11.40
2023-06-10T07:13:26.888Z,10.88
2023-06-10T07:15:54.300Z,10.93
2023-06-10T07:18:21.684Z,9.52
2023-06-10T07:20:49.053Z,10.73
2023-06-10T07:23:16.492Z,9.90
2023-06-10T07:25:43.846Z,9.20
2023-06-10T07:28:11.238Z,8.95
2023-06-10T07:30:38.703Z,8.75
2023-06-10T07:33:08.880Z,9.00
2023-06-10T07:35:36.317Z,8.45
2023-06-10T07:38:03.701Z,8.02
2023-06-10T07:40:33.567Z,8.45
2023-06-10T07:43:02.528Z,8.15
2023-06-10T07:45:29.906Z,8.20
2023-06-10T07:47:57.544Z,8.15
2023-06-10T07:50:25.135Z,8.68
2023-06-10T07:52:52.534Z,8.30
2023-06-10T07:55:19.936Z,7.43
2023-06-10T07:57:47.276Z,8.27
2023-06-10T08:00:14.970Z,6.60
2023-06-10T08:02:42.352Z,7.72
2023-06-10T08:05:09.985Z,7.32
2023-06-10T08:07:37.762Z,7.28
2023-06-10T08:10:06.072Z,7.50
2023-06-10T08:12:34.095Z,6.93
2023-06-10T08:15:01.864Z,7.68
2023-06-10T08:17:29.285Z,6.90
2023-06-10T08:19:56.759Z,6.70
2023-06-10T08:22:24.272Z,6.68
2023-06-10T08:24:51.606Z,7.40
2023-06-10T08:27:19.002Z,6.55
2023-06-10T08:29:46.375Z,6.50
2023-06-10T08:32:13.802Z,6.38
2023-06-10T08:34:41.482Z,6.38
2023-06-10T08:37:08.867Z,6.70
2023-06-10T08:39:36.223Z,6.82
2023-06-10T08:42:17.811Z,7.13
2023-06-10T08:44:45.218Z,6.38
2023-06-10T08:47:16.555Z,7.40
2023-06-10T08:49:47.728Z,6.78
2023-06-10T08:52:19.110Z,6.95
2023-06-10T08:54:49.522Z,6.65
2023-06-10T08:57:16.908Z,6.90
2023-06-10T08:59:44.286Z,6.68
2023-06-10T09:02:11.804Z,6.70
2023-06-10T09:04:39.692Z,6.13
2023-06-10T09:07:07.178Z,7.15
2023-06-10T09:09:34.615Z,6.40
2023-06-10T09:12:01.966Z,6.38
2023-06-10T09:14:29.376Z,6.13
2023-06-10T09:16:59.365Z,6.90
2023-06-10T09:19:26.833Z,6.40
2023-06-10T09:21:54.174Z,6.18
2023-06-10T09:24:25.243Z,5.80
2023-06-10T09:27:09.483Z,6.22
2023-06-10T09:29:53.310Z,5.97
2023-06-10T09:32:21.125Z,6.03
2023-06-10T09:34:48.791Z,5.82
2023-06-10T09:37:21.759Z,5.80
2023-06-10T09:40:09.056Z,6.43
2023-06-10T09:42:38.646Z,6.28
2023-06-10T09:45:06.995Z,5.63
2023-06-10T09:47:34.442Z,5.68
2023-06-10T09:50:02.846Z,5.32
2023-06-10T09:52:30.646Z,5.20
2023-06-10T09:55:02.418Z,5.40
2023-06-10T09:57:34.632Z,4.88
2023-06-10T10:00:06.579Z,4.82
2023-06-10T10:02:49.343Z,5.50
2023-06-10T10:05:17.614Z,5.03
2023-06-10T10:07:45.675Z,5.22
2023-06-10T10:10:14.075Z,5.00
2023-06-10T10:12:41.659Z,5.43
2023-06-10T10:15:10.335Z,4.65
2023-06-10T10:18:04.749Z,4.65
2023-06-10T10:20:33.438Z,4.68
2023-06-10T10:23:00.903Z,4.72
2023-06-10T10:25:35.660Z,4.43
2023-06-10T10:28:11.631Z,4.68
2023-06-10T10:30:44.100Z,4.60
2023-06-10T10:33:14.347Z,4.18
2023-06-10T10:35:41.758Z,4.10
2023-06-10T10:38:09.101Z,4.80
2023-06-10T10:40:36.432Z,4.40
2023-06-10T10:43:03.799Z,4.65
2023-06-10T10:45:31.264Z,4.65
2023-06-10T10:47:58.813Z,4.28
2023-06-10T10:50:27.144Z,4.28
2023-06-10T10:53:02.340Z,3.75
2023-06-10T10:55:30.100Z,3.72
2023-06-10T10:58:07.557Z,3.58
2023-06-10T11:00:36.290Z,4.07
2023-06-10T11:03:05.878Z,3.72
2023-06-10T11:05:40.991Z,4.22
2023-06-10T11:08:09.716Z,4.20
2023-06-10T11:10:41.190Z,4.45
2023-06-10T11:13:14.544Z,3.88
2023-06-10T11:15:51.958Z,4.68
2023-06-10T11:18:26.580Z,3.42
2023-06-10T11:21:05.607Z,3.00
2023-06-10T11:23:40.776Z,4.28
2023-06-10T11:26:27.874Z,4.05
2023-06-10T11:28:55.459Z,3.88
2023-06-10T11:31:26.286Z,3.67
2023-06-10T11:34:05.731Z,4.18
2023-06-10T11:36:34.334Z,3.90
2023-06-10T11:39:06.628Z,3.90
2023-06-10T11:41:35.088Z,3.55
2023-06-10T11:44:10.234Z,3.97
2023-06-10T11:46:38.207Z,3.60
2023-06-10T11:49:06.418Z,3.50
2023-06-10T11:51:38.754Z,3.22
2023-06-10T11:54:06.491Z,3.67
2023-06-10T11:56:33.862Z,3.40
2023-06-10T11:59:06.882Z,3.40
2023-06-10T12:01:35.317Z,3.47
2023-06-10T12:04:10.030Z,3.00
2023-06-10T12:06:41.259Z,3.90
2023-06-10T12:09:24.253Z,3.60
2023-06-10T12:11:58.614Z,3.53
2023-06-10T12:15:00.030Z,3.72
2023-06-10T12:17:34.329Z,2.88
2023-06-10T12:20:02.227Z,3.50
2023-06-10T12:22:40.518Z,3.13
2023-06-10T12:25:09.040Z,3.40
2023-06-10T12:27:37.735Z,3.53
2023-06-10T12:30:07.087Z,3.03
2023-06-10T12:32:45.618Z,3.13
2023-06-10T12:35:19.332Z,2.65
2023-06-10T12:37:57.928Z,2.92
2023-06-10T12:40:29.806Z,2.95
2023-06-10T12:42:57.484Z,5.55
2023-06-10T12:45:31.700Z,3.00
2023-06-10T12:48:10.281Z,2.40
2023-06-10T12:50:40.021Z,2.80
2023-06-10T12:53:07.659Z,3.47
2023-06-10T12:55:35.181Z,3.45
2023-06-10T12:58:02.892Z,3.20
2023-06-10T13:00:35.748Z,3.45
2023-06-10T13:03:03.348Z,2.97
2023-06-10T13:05:31.249Z,3.50
2023-06-10T13:07:59.122Z,4.45
2023-06-10T13:10:26.843Z,4.75
2023-06-10T13:12:55.824Z,4.20
2023-06-10T13:15:23.585Z,4.20
2023-06-10T13:17:51.962Z,4.38
2023-06-10T13:20:20.080Z,5.10
2023-06-10T13:22:48.571Z,4.22
2023-06-10T13:25:16.205Z,4.68
2023-06-10T13:27:46.141Z,4.63
2023-06-10T13:30:13.871Z,4.40
2023-06-10T13:32:42.259Z,4.68
2023-06-10T13:35:10.229Z,4.20
2023-06-10T13:37:38.044Z,4.45
2023-06-10T13:40:06.414Z,4.05
2023-06-10T13:42:33.980Z,4.68
2023-06-10T13:45:01.368Z,4.40
2023-06-10T13:47:29.142Z,4.25
2023-06-10T13:49:56.508Z,4.13
2023-06-10T13:52:23.861Z,4.10
2023-06-10T13:54:51.271Z,3.97
2023-06-10T13:57:18.626Z,4.28
2023-06-10T13:59:46.172Z,4.00
2023-06-10T14:02:13.674Z,3.67
2023-06-10T14:04:41.221Z,3.70
2023-06-10T14:07:08.649Z,3.88
2023-06-10T14:09:36.019Z,4.20
2023-06-10T14:12:04.721Z,3.70
2023-06-10T14:14:34.892Z,4.10
2023-06-10T14:17:02.799Z,3.88
2023-06-10T14:19:30.523Z,3.70
2023-06-10T14:21:57.843Z,4.28
2023-06-10T14:24:25.579Z,3.90
2023-06-10T14:26:52.997Z,3.85
2023-06-10T14:29:20.635Z,3.55
2023-06-10T14:31:48.095Z,3.97
2023-06-10T14:34:15.824Z,3.92
2023-06-10T14:36:43.308Z,3.67
2023-06-10T14:39:10.809Z,3.70
2023-06-10T14:41:38.206Z,4.10
2023-06-10T14:44:05.549Z,3.65
2023-06-10T14:46:33.057Z,3.80
2023-06-10T14:49:00.613Z,3.70
2023-06-10T14:51:28.168Z,3.58
2023-06-10T14:53:55.597Z,3.90
2023-06-10T14:56:23.048Z,3.83
2023-06-10T14:58:50.437Z,3.67
2023-06-10T15:01:17.865Z,3.78
2023-06-10T15:03:45.860Z,3.45
2023-06-10T15:06:13.299Z,3.92
2023-06-10T15:08:43.979Z,3.55
2023-06-10T15:11:12.103Z,4.38
2023-06-10T15:13:39.473Z,3.78
2023-06-10T15:16:07.334Z,3.88
2023-06-10T15:18:34.835Z,5.28
2023-06-10T15:21:02.231Z,4.47
2023-06-10T15:23:29.669Z,3.95
2023-06-10T15:25:57.028Z,4.22
2023-06-10T15:28:26.496Z,3.90
2023-06-10T15:30:57.429Z,4.25
2023-06-10T15:33:24.764Z,4.28
2023-06-10T15:35:53.733Z,4.20
2023-06-10T15:38:21.283Z,4.28
2023-06-10T15:40:48.905Z,4.50
2023-06-10T15:43:16.309Z,3.67
2023-06-10T15:45:43.666Z,4.32
2023-06-10T15:48:11.326Z,4.60
2023-06-10T15:50:39.047Z,4.00
2023-06-10T15:53:06.394Z,4.13
2023-06-10T15:55:33.729Z,9.95
2023-06-10T15:58:01.659Z,5.10
2023-06-10T16:00:29.029Z,4.85
2023-06-10T16:02:56.525Z,5.07
2023-06-10T16:05:24.044Z,4.78
2023-06-10T16:07:51.385Z,4.63
2023-06-10T16:10:18.905Z,5.45
2023-06-10T16:12:46.601Z,5.30
2023-06-10T16:15:14.020Z,5.50
2023-06-10T16:17:41.478Z,4.75
2023-06-10T16:20:09.176Z,5.22
2023-06-10T16:22:36.560Z,5.40
2023-06-10T16:25:04.154Z,4.95
2023-06-10T16:27:31.505Z,4.93
2023-06-10T16:29:58.925Z,5.10
2023-06-10T16:32:26.272Z,5.35
2023-06-10T16:34:53.764Z,5.00
2023-06-10T16:37:21.254Z,5.13
2023-06-10T16:39:48.643Z,4.90
2023-06-10T16:42:15.992Z,4.93
2023-06-10T16:44:43.378Z,4.25
2023-06-10T16:47:11.155Z,4.78
2023-06-10T16:49:39.150Z,4.82
2023-06-10T16:52:06.950Z,5.30
2023-06-10T16:54:34.317Z,5.32
2023-06-10T16:57:02.363Z,5.60
2023-06-10T16:59:29.726Z,5.38
2023-06-10T17:01:57.120Z,4.50
2023-06-10T17:04:24.510Z,7.28
2023-06-10T17:06:52.427Z,4.63
2023-06-10T17:09:21.232Z,5.25
2023-06-10T17:11:48.601Z,4.90
2023-06-10T17:14:16.069Z,5.32
2023-06-10T17:16:43.517Z,5.05
2023-06-10T17:19:11.060Z,4.95
2023-06-10T17:21:38.444Z,4.25
2023-06-10T17:24:06.272Z,4.30
2023-06-10T17:26:33.661Z,3.50
2023-06-10T17:29:02.810Z,4.47
2023-06-10T17:31:31.214Z,3.90
2023-06-10T17:33:58.615Z,4.25
2023-06-10T17:36:25.945Z,4.63
2023-06-10T17:38:53.298Z,4.50
2023-06-10T17:41:20.679Z,4.07
2023-06-10T17:43:48.036Z,4.25
2023-06-10T17:46:15.457Z,4.25
2023-06-10T17:48:42.798Z,4.43
2023-06-10T17:51:11.150Z,4.75
2023-06-10T17:53:38.505Z,5.30
2023-06-10T17:56:05.975Z,6.07
2023-06-10T17:58:33.464Z,5.93
2023-06-10T18:01:00.826Z,6.90
2023-06-10T18:03:28.762Z,5.78
2023-06-10T18:05:56.464Z,5.38
2023-06-10T18:08:23.880Z,5.85
2023-06-10T18:10:51.273Z,5.38
2023-06-10T18:13:18.684Z,5.30
2023-06-10T18:15:46.230Z,5.03
2023-06-10T18:18:13.664Z,5.78
2023-06-10T18:20:41.086Z,5.65
2023-06-10T18:23:08.459Z,5.90
2023-06-10T18:25:35.819Z,5.57
2023-06-10T18:28:03.240Z,5.80
2023-06-10T18:30:31.256Z,5.43
2023-06-10T18:32:58.746Z,5.75
2023-06-10T18:35:26.277Z,5.10
2023-06-10T18:37:53.645Z,4.97
2023-06-10T18:40:21.113Z,4.80
2023-06-10T18:42:48.446Z,5.07
2023-06-10T18:45:16.168Z,5.00
2023-06-10T18:47:57.050Z,5.07
2023-06-10T18:50:25.959Z,4.78
2023-06-10T18:52:53.572Z,4.60
2023-06-10T18:55:20.941Z,4.70
2023-06-10T18:57:48.348Z,5.15
2023-06-10T19:00:16.276Z,4.80
2023-06-10T19:02:43.814Z,5.15
2023-06-10T19:05:13.806Z,4.85
2023-06-10T19:07:41.480Z,5.53
2023-06-10T19:10:09.265Z,5.38
2023-06-10T19:12:36.629Z,5.95
2023-06-10T19:15:04.684Z,5.50
2023-06-10T19:17:32.102Z,6.15
2023-06-10T19:19:59.503Z,6.45
2023-06-10T19:22:26.933Z,5.95
2023-06-10T19:25:05.049Z,6.30
2023-06-10T19:27:32.532Z,6.20
2023-06-10T19:30:00.786Z,6.72
2023-06-10T19:32:28.564Z,7.43
2023-06-10T19:34:56.239Z,7.40
2023-06-10T19:37:23.654Z,7.05
2023-06-10T19:39:51.145Z,7.38
2023-06-10T19:42:18.580Z,7.50
2023-06-10T19:44:46.124Z,7.00
2023-06-10T19:47:13.503Z,7.60
2023-06-10T19:49:40.936Z,7.35
2023-06-10T19:52:08.931Z,7.28
2023-06-10T19:54:36.771Z,7.80
2023-06-10T19:57:04.535Z,8.30
2023-06-10T19:59:33.646Z,7.65
2023-06-10T20:02:01.132Z,8.52
2023-06-10T20:04:28.552Z,7.78
2023-06-10T20:06:56.055Z,8.30
2023-06-10T20:09:23.393Z,8.32
2023-06-10T20:11:50.936Z,10.02
2023-06-10T20:14:18.451Z,8.48
2023-06-10T20:16:46.379Z,7.68
2023-06-10T20:19:13.974Z,8.30
2023-06-10T20:21:41.386Z,8.07
2023-06-10T20:24:09.250Z,7.88
2023-06-10T20:26:36.757Z,7.72
2023-06-10T20:29:04.414Z,8.10
2023-06-10T20:31:31.942Z,8.00
2023-06-10T20:33:59.326Z,7.68
2023-06-10T20:36:27.269Z,7.43
2023-06-10T20:38:55.987Z,7.50
2023-06-10T20:41:23.306Z,8.27
2023-06-10T20:43:50.778Z,42.33
2023-06-10T20:46:18.169Z,16.17
2023-06-10T20:48:45.588Z,15.35
2023-06-10T20:51:13.006Z,7.60
2023-06-10T20:53:40.382Z,6.97
2023-06-10T20:56:08.050Z,35.83
2023-06-10T20:58:35.559Z,14.32
2023-06-10T21:01:02.971Z,20.42
2023-06-10T21:03:30.530Z,8.55
2023-06-10T21:05:57.965Z,7.35
2023-06-10T21:08:27.956Z,7.30
2023-06-10T21:10:55.731Z,8.43
2023-06-10T21:13:23.070Z,8.05
2023-06-10T21:15:50.599Z,7.68
2023-06-10T21:18:18.283Z,7.43
2023-06-10T21:20:45.782Z,12.43
2023-06-10T21:23:13.342Z,8.57
2023-06-10T21:25:41.621Z,8.02
2023-06-10T21:28:09.084Z,8.85
2023-06-10T21:30:36.487Z,7.35
2023-06-10T21:33:04.024Z,8.80
2023-06-10T21:35:31.453Z,8.10
2023-06-10T21:37:58.891Z,7.95
2023-06-10T21:40:26.287Z,8.63
2023-06-10T21:42:53.626Z,8.07
2023-06-10T21:45:20.995Z,8.05
2023-06-10T21:47:48.419Z,7.97
2023-06-10T21:50:15.802Z,8.27
2023-06-10T21:52:43.129Z,7.82
2023-06-10T21:55:11.343Z,8.13
2023-06-10T21:57:38.966Z,8.15
2023-06-10T22:00:12.284Z,8.57
2023-06-10T22:02:43.208Z,7.93
2023-06-10T22:05:10.783Z,7.57
2023-06-10T22:07:38.356Z,8.13
2023-06-10T22:10:06.560Z,8.45
2023-06-10T22:12:33.975Z,7.65
2023-06-10T22:15:01.452Z,8.30
2023-06-10T22:17:28.848Z,7.90
2023-06-10T22:19:56.286Z,7.75
2023-06-10T22:22:23.660Z,8.80
2023-06-10T22:24:57.306Z,8.00
2023-06-10T22:27:24.683Z,7.60
2023-06-10T22:29:52.124Z,8.73
2023-06-10T22:32:19.477Z,8.13
2023-06-10T22:34:47.104Z,7.90
2023-06-10T22:37:14.617Z,8.05
2023-06-10T22:39:41.996Z,8.18
2023-06-10T22:42:10.062Z,8.00
2023-06-10T22:44:37.669Z,8.18
2023-06-10T22:47:05.422Z,8.40
2023-06-10T22:49:32.786Z,7.97
2023-06-10T22:52:00.140Z,8.57
2023-06-10T22:54:28.333Z,7.95
2023-06-10T22:56:55.733Z,8.57
2023-06-10T22:59:23.146Z,8.48
2023-06-10T23:01:50.555Z,8.93
2023-06-10T23:04:17.921Z,8.85
2023-06-10T23:06:46.177Z,8.57
2023-06-10T23:09:14.374Z,7.68
2023-06-10T23:11:42.476Z,8.70
2023-06-10T23:14:10.484Z,8.70
2023-06-10T23:16:46.634Z,8.40
2023-06-10T23:19:19.177Z,43.88
2023-06-10T23:21:54.139Z,14.48
2023-06-10T23:24:28.526Z,19.40
2023-06-10T23:26:56.962Z,10.55
2023-06-10T23:29:24.770Z,8.95
2023-06-10T23:31:52.502Z,8.43
2023-06-10T23:34:20.471Z,8.43
2023-06-10T23:36:47.941Z,9.55
2023-06-10T23:39:15.580Z,8.95
2023-06-10T23:41:43.709Z,9.27
2023-06-10T23:44:14.160Z,8.75
2023-06-10T23:46:41.640Z,10.02
2023-06-10T23:49:10.133Z,9.38
2023-06-10T23:51:38.386Z,10.27
2023-06-10T23:54:06.846Z,9.40
2023-06-10T23:56:34.226Z,9.93
2023-06-10T23:59:01.601Z,10.13
